createdAt,value
2023-05-25T00:01:00.483Z,100854.84
2023-05-25T00:03:31.646Z,100839.91
2023-05-25T00:06:03.588Z,100849.34
2023-05-25T00:08:31.934Z,100836.69
2023-05-25T00:10:59.656Z,100838.22
2023-05-25T00:13:27.597Z,100838.03
2023-05-25T00:15:56.114Z,100843.50
2023-05-25T00:18:25.057Z,100834.19
2023-05-25T00:20:55.822Z,100847.94
2023-05-25T00:23:23.915Z,100845.38
2023-05-25T00:25:51.984Z,100846.56
2023-05-25T00:28:19.991Z,100850.41
2023-05-25T00:30:48.358Z,100858.72
2023-05-25T00:33:17.152Z,100856.41
2023-05-25T00:35:46.789Z,100856.56
2023-05-25T00:38:17.804Z,100869.56
2023-05-25T00:40:46.336Z,100870.34
2023-05-25T00:43:14.229Z,100888.22
2023-05-25T00:45:42.605Z,100886.38
2023-05-25T00:48:11.616Z,100895.69
2023-05-25T00:50:40.783Z,100903.19
2023-05-25T00:53:10.261Z,100908.44
2023-05-25T00:55:50.743Z,100918.50
2023-05-25T00:58:22.056Z,100928.34
2023-05-25T01:00:53.535Z,100922.91
2023-05-25T01:03:28.052Z,100933.72
2023-05-25T01:05:58.389Z,100939.91
2023-05-25T01:08:30.108Z,100955.41
2023-05-25T01:10:58.964Z,100958.50
2023-05-25T01:13:28.575Z,100957.88
2023-05-25T01:15:57.643Z,100955.84
2023-05-25T01:18:25.231Z,100945.00
2023-05-25T01:21:00.155Z,100945.66
2023-05-25T01:23:35.350Z,100946.84
2023-05-25T01:26:09.842Z,100953.09
2023-05-25T01:28:46.588Z,100964.81
2023-05-25T01:31:16.434Z,100972.78
2023-05-25T01:33:45.972Z,100965.63
2023-05-25T01:36:13.963Z,100968.22
2023-05-25T01:38:42.514Z,100963.00
2023-05-25T01:41:11.219Z,100954.13
2023-05-25T01:43:39.028Z,100966.03
2023-05-25T01:46:27.515Z,100965.59
2023-05-25T01:49:18.825Z,100969.94
2023-05-25T01:52:07.064Z,100972.56
2023-05-25T01:54:47.317Z,100972.47
2023-05-25T01:57:18.759Z,100981.72
2023-05-25T01:59:49.630Z,100976.94
2023-05-25T02:02:20.655Z,100978.91
2023-05-25T02:04:50.054Z,100967.34
2023-05-25T02:07:18.645Z,100969.53
2023-05-25T02:09:46.705Z,100979.22
2023-05-25T02:12:15.069Z,100981.00
2023-05-25T02:14:42.996Z,100971.44
2023-05-25T02:17:12.909Z,100972.66
2023-05-25T02:19:40.942Z,100967.22
2023-05-25T02:22:09.207Z,100974.22
2023-05-25T02:24:38.198Z,100968.28
2023-05-25T02:27:13.020Z,100969.66
2023-05-25T02:29:42.964Z,100970.34
2023-05-25T02:32:11.390Z,100972.13
2023-05-25T02:34:40.055Z,100980.13
2023-05-25T02:37:08.136Z,100978.53
2023-05-25T02:39:36.413Z,100974.50
2023-05-25T02:42:04.915Z,100979.59
2023-05-25T02:44:32.752Z,100974.78
2023-05-25T02:47:01.051Z,100969.63
2023-05-25T02:49:30.127Z,100979.56
2023-05-25T02:51:58.495Z,100966.16
2023-05-25T02:54:29.539Z,100957.00
2023-05-25T02:56:57.382Z,100960.25
2023-05-25T02:59:25.883Z,100961.72
2023-05-25T03:01:53.546Z,100955.25
2023-05-25T03:04:22.102Z,100952.28
2023-05-25T03:06:50.107Z,100954.75
2023-05-25T03:09:19.910Z,100960.81
2023-05-25T03:11:50.229Z,100969.03
2023-05-25T03:14:20.688Z,100973.44
2023-05-25T03:16:57.046Z,100974.41
2023-05-25T03:19:25.915Z,100980.03
2023-05-25T03:21:54.209Z,100987.31
2023-05-25T03:24:22.453Z,101002.19
2023-05-25T03:26:50.155Z,101003.09
2023-05-25T03:29:18.507Z,101006.91
2023-05-25T03:31:46.810Z,101003.66
2023-05-25T03:34:14.952Z,101009.81
2023-05-25T03:36:46.000Z,101008.56
2023-05-25T03:39:15.119Z,101016.28
2023-05-25T03:41:44.382Z,101024.53
2023-05-25T03:44:12.659Z,101016.84
2023-05-25T03:46:41.246Z,101018.16
2023-05-25T03:49:13.883Z,101024.66
2023-05-25T03:51:43.380Z,101029.47
2023-05-25T03:54:12.056Z,101021.81
2023-05-25T03:56:39.726Z,101029.25
2023-05-25T03:59:08.250Z,101027.94
2023-05-25T04:01:39.003Z,101030.06
2023-05-25T04:04:07.979Z,101033.13
2023-05-25T04:06:37.868Z,101040.31
2023-05-25T04:09:06.691Z,101039.09
2023-05-25T04:11:34.381Z,101038.56
2023-05-25T04:14:02.839Z,101049.13
2023-05-25T04:16:33.900Z,101052.88
2023-05-25T04:19:03.589Z,101049.72
2023-05-25T04:21:32.287Z,101058.75
2023-05-25T04:24:01.315Z,101051.47
2023-05-25T04:26:36.908Z,101065.50
2023-05-25T04:29:05.236Z,101063.53
2023-05-25T04:32:11.744Z,101058.00
2023-05-25T04:34:56.823Z,101063.97
2023-05-25T04:37:27.690Z,101059.94
2023-05-25T04:39:58.373Z,101068.31
2023-05-25T04:42:27.057Z,101070.19
2023-05-25T04:44:56.432Z,101071.06
2023-05-25T04:47:25.222Z,101069.53
2023-05-25T04:49:54.020Z,101070.22
2023-05-25T04:52:21.747Z,101068.03
2023-05-25T04:54:49.326Z,101066.69
2023-05-25T04:57:17.515Z,101072.88
2023-05-25T04:59:45.790Z,101069.50
2023-05-25T05:02:13.553Z,101071.31
2023-05-25T05:04:42.476Z,101079.63
2023-05-25T05:07:10.375Z,101084.28
2023-05-25T05:09:38.395Z,101086.97
2023-05-25T05:12:08.126Z,101094.06
2023-05-25T05:14:40.670Z,101102.16
2023-05-25T05:17:08.732Z,101102.16
2023-05-25T05:19:36.448Z,101105.31
2023-05-25T05:22:05.610Z,101114.69
2023-05-25T05:24:34.786Z,101118.78
2023-05-25T05:27:04.940Z,101131.91
2023-05-25T05:29:44.481Z,101132.53
2023-05-25T05:32:12.683Z,101123.84
2023-05-25T05:34:41.076Z,101137.47
2023-05-25T05:37:18.507Z,101138.47
2023-05-25T05:39:47.291Z,101133.09
2023-05-25T05:42:17.500Z,101148.16
2023-05-25T05:44:45.777Z,101136.25
2023-05-25T05:47:14.098Z,101138.91
2023-05-25T05:49:41.946Z,101143.88
2023-05-25T05:52:10.489Z,101142.00
2023-05-25T05:54:38.884Z,101145.94
2023-05-25T05:57:14.345Z,101156.31
2023-05-25T05:59:43.163Z,101152.91
2023-05-25T06:02:10.974Z,101160.97
2023-05-25T06:04:39.063Z,101162.66
2023-05-25T06:07:07.175Z,101172.53
2023-05-25T06:09:35.898Z,101174.59
2023-05-25T06:12:05.053Z,101175.38
2023-05-25T06:14:33.045Z,101182.16
2023-05-25T06:17:03.609Z,101176.66
2023-05-25T06:19:31.695Z,101187.03
2023-05-25T06:21:59.672Z,101180.06
2023-05-25T06:24:28.478Z,101195.00
2023-05-25T06:26:57.355Z,101191.28
2023-05-25T06:29:26.094Z,101197.75
2023-05-25T06:32:01.799Z,101194.03
2023-05-25T06:34:32.477Z,101198.16
2023-05-25T06:37:08.994Z,101201.31
2023-05-25T06:39:37.703Z,101205.19
2023-05-25T06:42:06.553Z,101196.06
2023-05-25T06:44:35.095Z,101203.34
2023-05-25T06:47:03.480Z,101205.84
2023-05-25T06:49:32.440Z,101208.09
2023-05-25T06:52:00.705Z,101211.91
2023-05-25T06:54:28.424Z,101217.69
2023-05-25T06:56:56.213Z,101217.72
2023-05-25T06:59:24.015Z,101215.13
2023-05-25T07:01:52.141Z,101215.50
2023-05-25T07:04:19.904Z,101215.06
2023-05-25T07:06:48.397Z,101223.41
2023-05-25T07:09:17.356Z,101212.81
2023-05-25T07:11:45.399Z,101219.31
2023-05-25T07:14:13.829Z,101207.94
2023-05-25T07:16:42.484Z,101220.16
2023-05-25T07:19:11.255Z,101208.16
2023-05-25T07:21:39.070Z,101210.28
2023-05-25T07:24:07.261Z,101213.03
2023-05-25T07:26:36.625Z,101218.91
2023-05-25T07:29:05.821Z,101222.97
2023-05-25T07:31:33.589Z,101228.63
2023-05-25T07:34:03.767Z,101229.06
2023-05-25T07:36:33.764Z,101237.38
2023-05-25T07:39:01.887Z,101235.44
2023-05-25T07:41:29.884Z,101236.78
2023-05-25T07:43:57.532Z,101251.91
2023-05-25T07:46:26.632Z,101246.97
2023-05-25T07:48:56.335Z,101248.84
2023-05-25T07:51:26.489Z,101254.22
2023-05-25T07:53:55.406Z,101259.66
2023-05-25T07:56:23.821Z,101256.66
2023-05-25T07:58:52.083Z,101260.63
2023-05-25T08:01:20.107Z,101264.78
2023-05-25T08:03:49.967Z,101261.75
2023-05-25T08:06:18.602Z,101270.09
2023-05-25T08:08:47.248Z,101259.19
2023-05-25T08:11:15.851Z,101261.09
2023-05-25T08:13:44.679Z,101262.56
2023-05-25T08:16:12.438Z,101269.41
2023-05-25T08:18:41.918Z,101266.44
2023-05-25T08:21:09.934Z,101271.69
2023-05-25T08:23:42.404Z,101277.63
2023-05-25T08:26:31.025Z,101272.72
2023-05-25T08:29:00.936Z,101279.63
2023-05-25T08:31:28.749Z,101289.16
2023-05-25T08:33:56.944Z,101281.94
2023-05-25T08:36:26.094Z,101290.69
2023-05-25T08:38:54.197Z,101294.31
2023-05-25T08:41:21.880Z,101306.22
2023-05-25T08:43:50.379Z,101305.53
2023-05-25T08:46:38.044Z,101304.91
2023-05-25T08:49:13.755Z,101311.25
2023-05-25T08:51:53.096Z,101311.56
2023-05-25T08:54:30.995Z,101313.25
2023-05-25T08:57:06.171Z,101306.91
2023-05-25T08:59:48.449Z,101313.72
2023-05-25T09:02:31.578Z,101314.72
2023-05-25T09:05:01.755Z,101314.38
2023-05-25T09:07:32.321Z,101326.63
2023-05-25T09:10:01.638Z,101307.31
2023-05-25T09:12:32.632Z,101312.44
2023-05-25T09:15:00.590Z,101324.53
2023-05-25T09:17:28.856Z,101326.06
2023-05-25T09:19:57.113Z,101323.50
2023-05-25T09:22:24.796Z,101323.50
2023-05-25T09:24:53.839Z,101323.50
2023-05-25T09:27:23.312Z,101325.25
2023-05-25T09:29:51.806Z,101323.34
2023-05-25T09:32:20.279Z,101324.34
2023-05-25T09:34:48.791Z,101323.44
2023-05-25T09:37:19.368Z,101323.84
2023-05-25T09:39:48.106Z,101332.69
2023-05-25T09:42:17.119Z,101330.78
2023-05-25T09:44:45.479Z,101333.97
2023-05-25T09:47:15.498Z,101338.72
2023-05-25T09:49:44.597Z,101335.22
2023-05-25T09:52:12.984Z,101332.59
2023-05-25T09:54:44.998Z,101341.00
2023-05-25T09:57:13.544Z,101331.47
2023-05-25T09:59:42.226Z,101340.78
2023-05-25T10:02:09.906Z,101329.75
2023-05-25T10:04:38.133Z,101331.03
2023-05-25T10:07:07.020Z,101342.19
2023-05-25T10:09:41.870Z,101341.97
2023-05-25T10:12:11.750Z,101340.03
2023-05-25T10:14:40.228Z,101343.91
2023-05-25T10:17:11.972Z,101343.31
2023-05-25T10:20:00.690Z,101341.22
2023-05-25T10:22:34.158Z,101331.06
2023-05-25T10:25:36.328Z,101323.38
2023-05-25T10:28:14.075Z,101329.66
2023-05-25T10:30:43.566Z,101313.16
2023-05-25T10:33:12.723Z,101316.41
2023-05-25T10:36:01.717Z,101315.56
2023-05-25T10:38:34.346Z,101302.16
2023-05-25T10:41:06.051Z,101310.38
2023-05-25T10:43:34.280Z,101310.47
2023-05-25T10:46:02.708Z,101309.78
2023-05-25T10:48:40.133Z,101312.53
2023-05-25T10:51:10.087Z,101314.41
2023-05-25T10:53:43.419Z,101319.91
2023-05-25T10:56:12.447Z,101314.81
2023-05-25T10:58:44.912Z,101308.56
2023-05-25T11:01:15.185Z,101304.97
2023-05-25T11:03:56.834Z,101305.41
2023-05-25T11:06:44.789Z,101307.16
2023-05-25T11:09:26.879Z,101304.78
2023-05-25T11:11:59.770Z,101299.34
2023-05-25T11:14:28.350Z,101294.75
2023-05-25T11:17:15.045Z,101290.13
2023-05-25T11:19:52.349Z,101289.72
2023-05-25T11:22:35.280Z,101284.06
2023-05-25T11:25:40.156Z,101280.88
2023-05-25T11:28:11.470Z,101284.28
2023-05-25T11:30:41.536Z,101276.09
2023-05-25T11:33:09.328Z,101276.66
2023-05-25T11:35:37.406Z,101276.09
2023-05-25T11:38:07.115Z,101275.53
2023-05-25T11:40:36.966Z,101277.53
2023-05-25T11:43:08.223Z,101273.06
2023-05-25T11:45:37.435Z,101276.59
2023-05-25T11:48:05.985Z,101273.84
2023-05-25T11:50:34.197Z,101272.03
2023-05-25T11:53:07.298Z,101269.31
2023-05-25T11:55:35.437Z,101265.75
2023-05-25T11:58:03.197Z,101269.22
2023-05-25T12:00:31.618Z,101266.81
2023-05-25T12:02:59.746Z,101254.59
2023-05-25T12:05:37.969Z,101257.50
2023-05-25T12:08:07.044Z,101247.88
2023-05-25T12:10:49.981Z,101257.19
2023-05-25T12:13:17.962Z,101253.91
2023-05-25T12:15:46.119Z,101246.13
2023-05-25T12:18:15.003Z,101246.91
2023-05-25T12:20:43.093Z,101249.19
2023-05-25T12:23:11.158Z,101238.75
2023-05-25T12:25:50.377Z,101239.94
2023-05-25T12:28:19.754Z,101231.41
2023-05-25T12:30:47.907Z,101226.78
2023-05-25T12:33:15.749Z,101228.00
2023-05-25T12:36:15.756Z,101227.50
2023-05-25T12:38:58.591Z,101210.56
2023-05-25T12:41:26.405Z,101215.69
2023-05-25T12:43:53.999Z,101220.63
2023-05-25T12:46:26.104Z,101218.38
2023-05-25T12:48:53.996Z,101212.97
2023-05-25T12:51:22.715Z,101205.63
2023-05-25T12:53:51.793Z,101211.72
2023-05-25T12:56:20.102Z,101215.72
2023-05-25T12:58:47.706Z,101209.41
2023-05-25T13:01:15.962Z,101219.16
2023-05-25T13:03:44.007Z,101217.69
2023-05-25T13:06:11.731Z,101213.69
2023-05-25T13:08:39.361Z,101212.72
2023-05-25T13:11:07.445Z,101217.75
2023-05-25T13:13:35.926Z,101216.34
2023-05-25T13:16:04.350Z,101209.34
2023-05-25T13:18:32.313Z,101200.31
2023-05-25T13:21:00.954Z,101204.78
2023-05-25T13:23:29.700Z,101194.38
2023-05-25T13:25:57.280Z,101200.34
2023-05-25T13:28:25.446Z,101195.25
2023-05-25T13:30:53.588Z,101189.72
2023-05-25T13:33:21.694Z,101189.00
2023-05-25T13:35:58.963Z,101179.34
2023-05-25T13:38:29.625Z,101179.25
2023-05-25T13:40:57.789Z,101183.16
2023-05-25T13:43:26.131Z,101179.03
2023-05-25T13:45:54.068Z,101176.06
2023-05-25T13:48:22.436Z,101178.47
2023-05-25T13:50:50.599Z,101182.16
2023-05-25T13:53:18.346Z,101175.75
2023-05-25T13:55:45.990Z,101172.16
2023-05-25T13:58:13.933Z,101175.53
2023-05-25T14:00:42.352Z,101169.59
2023-05-25T14:03:10.795Z,101166.13
2023-05-25T14:05:38.905Z,101179.16
2023-05-25T14:08:06.912Z,101161.47
2023-05-25T14:10:35.087Z,101167.97
2023-05-25T14:13:02.996Z,101172.00
2023-05-25T14:15:30.878Z,101171.34
2023-05-25T14:17:58.960Z,101170.66
2023-05-25T14:20:27.162Z,101155.56
2023-05-25T14:22:55.510Z,101166.19
2023-05-25T14:25:24.123Z,101159.28
2023-05-25T14:27:51.758Z,101159.34
2023-05-25T14:30:19.885Z,101164.31
2023-05-25T14:32:48.034Z,101156.38
2023-05-25T14:35:16.135Z,101162.03
2023-05-25T14:37:44.410Z,101163.41
2023-05-25T14:40:12.642Z,101157.34
2023-05-25T14:42:40.442Z,101159.09
2023-05-25T14:45:11.235Z,101166.63
2023-05-25T14:47:39.704Z,101161.38
2023-05-25T14:50:07.910Z,101161.63
2023-05-25T14:52:37.333Z,101158.22
2023-05-25T14:55:05.846Z,101159.97
2023-05-25T14:57:34.054Z,101164.13
2023-05-25T15:00:03.115Z,101158.06
2023-05-25T15:02:31.486Z,101164.59
2023-05-25T15:04:59.524Z,101159.97
2023-05-25T15:07:27.631Z,101168.78
2023-05-25T15:09:55.316Z,101165.06
2023-05-25T15:12:23.339Z,101159.84
2023-05-25T15:14:50.987Z,101159.16
2023-05-25T15:17:19.009Z,101169.53
2023-05-25T15:19:46.599Z,101154.78
2023-05-25T15:22:14.979Z,101157.38
2023-05-25T15:24:42.864Z,101159.06
2023-05-25T15:27:10.894Z,101156.13
2023-05-25T15:29:39.097Z,101158.19
2023-05-25T15:32:09.661Z,101160.56
2023-05-25T15:34:37.893Z,101171.66
2023-05-25T15:37:05.632Z,101169.88
2023-05-25T15:39:33.806Z,101165.34
2023-05-25T15:42:01.906Z,101163.16
2023-05-25T15:44:30.434Z,101169.22
2023-05-25T15:46:58.178Z,101163.59
2023-05-25T15:49:26.108Z,101150.88
2023-05-25T15:51:54.146Z,101159.81
2023-05-25T15:54:21.849Z,101159.22
2023-05-25T15:56:49.612Z,101162.53
2023-05-25T15:59:17.345Z,101164.03
2023-05-25T16:01:45.503Z,101163.06
2023-05-25T16:04:13.638Z,101159.03
2023-05-25T16:06:41.726Z,101167.16
2023-05-25T16:09:09.347Z,101158.72
2023-05-25T16:11:37.206Z,101150.44
2023-05-25T16:14:05.625Z,101152.25
2023-05-25T16:16:33.352Z,101151.38
2023-05-25T16:19:01.101Z,101154.88
2023-05-25T16:21:29.019Z,101150.41
2023-05-25T16:23:57.636Z,101155.16
2023-05-25T16:26:26.603Z,101158.38
2023-05-25T16:28:55.098Z,101150.53
2023-05-25T16:31:23.157Z,101158.47
2023-05-25T16:33:50.848Z,101151.97
2023-05-25T16:36:18.930Z,101155.25
2023-05-25T16:38:46.941Z,101155.53
2023-05-25T16:41:15.083Z,101141.44
2023-05-25T16:43:42.691Z,101149.09
2023-05-25T16:46:10.805Z,101141.50
2023-05-25T16:48:38.428Z,101136.97
2023-05-25T16:51:07.456Z,101145.59
2023-05-25T16:53:35.650Z,101137.28
2023-05-25T16:56:03.511Z,101142.00
2023-05-25T16:58:31.178Z,101142.16
2023-05-25T17:00:58.979Z,101146.22
2023-05-25T17:03:26.700Z,101139.47
2023-05-25T17:05:54.365Z,101150.28
2023-05-25T17:08:22.162Z,101152.44
2023-05-25T17:10:50.112Z,101156.69
2023-05-25T17:13:17.764Z,101150.69
2023-05-25T17:15:46.041Z,101153.44
2023-05-25T17:18:13.999Z,101158.81
2023-05-25T17:20:42.149Z,101159.84
2023-05-25T17:23:10.875Z,101157.28
2023-05-25T17:25:39.502Z,101159.81
2023-05-25T17:28:07.168Z,101168.00
2023-05-25T17:30:34.999Z,101165.72
2023-05-25T17:33:02.589Z,101161.47
2023-05-25T17:35:30.621Z,101158.97
2023-05-25T17:37:58.272Z,101160.97
2023-05-25T17:40:25.961Z,101154.22
2023-05-25T17:42:54.057Z,101161.75
2023-05-25T17:45:22.101Z,101165.69
2023-05-25T17:47:50.749Z,101161.69
2023-05-25T17:50:18.435Z,101165.91
2023-05-25T17:52:46.809Z,101162.91
2023-05-25T17:55:14.383Z,101168.50
2023-05-25T17:57:42.483Z,101166.09
2023-05-25T18:00:11.100Z,101164.44
2023-05-25T18:02:42.456Z,101166.56
2023-05-25T18:05:10.568Z,101168.22
2023-05-25T18:07:38.206Z,101170.66
2023-05-25T18:10:06.066Z,101170.06
2023-05-25T18:12:34.220Z,101175.75
2023-05-25T18:15:02.236Z,101176.47
2023-05-25T18:17:29.966Z,101166.00
2023-05-25T18:19:58.061Z,101175.53
2023-05-25T18:22:25.649Z,101181.47
2023-05-25T18:24:53.191Z,101185.34
2023-05-25T18:27:21.791Z,101182.97
2023-05-25T18:29:49.431Z,101198.66
2023-05-25T18:32:18.037Z,101197.97
2023-05-25T18:34:46.192Z,101196.44
2023-05-25T18:37:14.450Z,101195.66
2023-05-25T18:39:42.608Z,101194.88
2023-05-25T18:42:10.204Z,101198.22
2023-05-25T18:44:38.824Z,101198.53
2023-05-25T18:47:06.590Z,101191.47
2023-05-25T18:49:36.110Z,101193.81
2023-05-25T18:52:04.392Z,101196.25
2023-05-25T18:54:32.461Z,101191.53
2023-05-25T18:57:03.580Z,101194.16
2023-05-25T18:59:33.431Z,101193.84
2023-05-25T19:02:02.065Z,101191.78
2023-05-25T19:04:29.619Z,101192.72
2023-05-25T19:06:57.608Z,101200.88
2023-05-25T19:09:25.601Z,101193.22
2023-05-25T19:11:53.622Z,101199.06
2023-05-25T19:14:21.818Z,101203.31
2023-05-25T19:16:49.498Z,101206.91
2023-05-25T19:19:17.229Z,101206.63
2023-05-25T19:21:45.987Z,101201.91
2023-05-25T19:24:13.690Z,101205.53
2023-05-25T19:26:42.175Z,101205.44
2023-05-25T19:29:11.229Z,101201.66
2023-05-25T19:31:39.794Z,101206.44
2023-05-25T19:34:07.467Z,101211.19
2023-05-25T19:36:36.761Z,101219.88
2023-05-25T19:39:05.029Z,101218.56
2023-05-25T19:41:32.650Z,101225.59
2023-05-25T19:44:00.333Z,101224.59
2023-05-25T19:46:28.002Z,101223.59
2023-05-25T19:48:57.795Z,101231.00
2023-05-25T19:51:25.881Z,101238.75
2023-05-25T19:53:55.294Z,101238.94
2023-05-25T19:56:23.160Z,101237.06
2023-05-25T19:58:51.321Z,101247.75
2023-05-25T20:01:19.081Z,101251.81
2023-05-25T20:03:47.513Z,101242.75
2023-05-25T20:06:15.478Z,101250.91
2023-05-25T20:08:43.157Z,101247.63
2023-05-25T20:11:11.454Z,101251.28
2023-05-25T20:13:39.258Z,101252.41
2023-05-25T20:16:11.125Z,101250.13
2023-05-25T20:18:39.166Z,101251.69
2023-05-25T20:21:06.889Z,101250.03
2023-05-25T20:23:35.447Z,101255.53
2023-05-25T20:26:03.111Z,101249.66
2023-05-25T20:28:30.759Z,101245.63
2023-05-25T20:30:58.855Z,101248.47
2023-05-25T20:33:26.896Z,101247.81
2023-05-25T20:35:55.632Z,101251.03
2023-05-25T20:38:24.771Z,101249.84
2023-05-25T20:40:53.026Z,101246.63
2023-05-25T20:43:21.107Z,101258.81
2023-05-25T20:45:49.026Z,101251.63
2023-05-25T20:48:17.341Z,101252.56
2023-05-25T20:50:44.972Z,101246.97
2023-05-25T20:53:12.721Z,101243.00
2023-05-25T20:55:40.451Z,101246.72
2023-05-25T20:58:08.239Z,101244.47
2023-05-25T21:00:36.642Z,101245.53
2023-05-25T21:03:05.883Z,101246.19
2023-05-25T21:05:34.116Z,101244.53
2023-05-25T21:08:03.615Z,101246.03
2023-05-25T21:10:31.777Z,101240.53
2023-05-25T21:12:59.632Z,101248.25
2023-05-25T21:15:27.804Z,101250.44
2023-05-25T21:17:55.429Z,101236.44
2023-05-25T21:20:23.561Z,101244.13
2023-05-25T21:22:51.971Z,101247.31
2023-05-25T21:25:20.947Z,101248.97
2023-05-25T21:27:48.636Z,101249.53
2023-05-25T21:30:16.618Z,101250.22
2023-05-25T21:32:44.710Z,101247.91
2023-05-25T21:35:12.687Z,101252.25
2023-05-25T21:37:40.691Z,101247.19
2023-05-25T21:40:08.778Z,101246.06
2023-05-25T21:42:36.490Z,101252.75
2023-05-25T21:45:05.030Z,101246.25
2023-05-25T21:47:34.474Z,101251.75
2023-05-25T21:50:02.651Z,101253.09
2023-05-25T21:52:30.803Z,101253.09
2023-05-25T21:54:58.941Z,101264.25
2023-05-25T21:57:27.169Z,101258.13
2023-05-25T21:59:59.331Z,101260.41
2023-05-25T22:02:27.973Z,101260.56
2023-05-25T22:04:55.778Z,101261.22
2023-05-25T22:07:23.814Z,101260.59
2023-05-25T22:09:51.959Z,101267.97
2023-05-25T22:12:20.933Z,101270.81
2023-05-25T22:14:48.568Z,101266.13
2023-05-25T22:17:19.012Z,101273.16
2023-05-25T22:19:55.364Z,101272.31
2023-05-25T22:22:34.046Z,101275.13
2023-05-25T22:25:02.083Z,101272.59
2023-05-25T22:27:30.753Z,101267.91
2023-05-25T22:29:58.863Z,101263.75
2023-05-25T22:32:27.611Z,101261.72
2023-05-25T22:34:55.283Z,101256.03
2023-05-25T22:37:22.976Z,101259.19
2023-05-25T22:39:51.562Z,101247.88
2023-05-25T22:42:19.251Z,101250.00
2023-05-25T22:44:49.294Z,101250.00
2023-05-25T22:47:17.992Z,101249.84
2023-05-25T22:49:45.912Z,101250.47
2023-05-25T22:52:13.934Z,101249.28
2023-05-25T22:54:41.984Z,101250.44
2023-05-25T22:57:10.706Z,101252.16
2023-05-25T22:59:38.753Z,101248.88
2023-05-25T23:02:06.528Z,101241.31
2023-05-25T23:04:36.678Z,101240.78
2023-05-25T23:07:04.955Z,101245.97
2023-05-25T23:09:32.993Z,101242.16
2023-05-25T23:12:00.989Z,101248.28
2023-05-25T23:14:30.443Z,101251.03
2023-05-25T23:16:58.235Z,101244.84
2023-05-25T23:19:25.930Z,101251.16
2023-05-25T23:21:54.572Z,101250.00
2023-05-25T23:24:22.199Z,101248.75
2023-05-25T23:26:50.004Z,101252.50
2023-05-25T23:29:17.545Z,101239.28
2023-05-25T23:31:45.178Z,101240.16
2023-05-25T23:34:12.784Z,101233.66
2023-05-25T23:36:40.981Z,101229.91
2023-05-25T23:39:09.127Z,101233.81
2023-05-25T23:41:37.224Z,101239.25
2023-05-25T23:44:04.817Z,101240.72
2023-05-25T23:46:33.093Z,101232.78
2023-05-25T23:49:01.328Z,101237.41
2023-05-25T23:51:29.024Z,101239.88
2023-05-25T23:53:57.110Z,101236.75
2023-05-25T23:56:25.266Z,101242.16
2023-05-25T23:58:53.399Z,101231.22
